Aguajito, Mexico

3:10 PM MST on July 23, 2017 (GMT -0700)
Globalmet - El Triunfo | | Change Station

Elev 282 ft 28.13 °N, 110.57 °W | Updated 0 second ago

Mostly Cloudy
Mostly Cloudy
95.3 °F
Feels Like 104 °F
N
12.0
Wind Variable Wind from SW
Gusts 14.0 mph

Today
High -- | Low -- °F
--% Chance of Precip.
Yesterday
High -- | Low -- °F
Precip. -- in
Pressure 29.77 in
Visibility 10.0 miles
Clouds Scattered Clouds 3000 ft
Scattered Clouds 10000 ft
Heat Index 104 °F
Dew Point 72 °F
Humidity 47%
Rainfall 0.00 in
Snow Depth Not available.
5:40 AM 7:18 PM
New Moon, 0% visible
METAR MMGM 232055Z 25015KT 10SM SCT030 SCT100 35/24 A2977 RMK 8/310
Pressure 29.77 in
Visibility 10.0 miles
Clouds Scattered Clouds 3000 ft
Scattered Clouds 10000 ft
Heat Index 104 °F
Dew Point 72 °F
Humidity 47%
Rainfall 0.00 in
Snow Depth Not available.
5:40 AM 7:18 PM
New Moon, 0% visible
METAR MMGM 232055Z 25015KT 10SM SCT030 SCT100 35/24 A2977 RMK 8/310

Get Severe Weather Alerts

Thanks for signing up!

Be on the lookout for a verification email in your inbox.

You'll start receiving the daily forecast at 6 AM.

×

10-Day Weather Forecast

No radar image for this location.
×

Almanac

Astronomy

Jul. 23, 2017 Rise Set
Actual Time
Civil Twilight
Nautical Twilight
Astronomical Twilight
Moon
Length of Visible Light
Length of Day
Tomorrow will be .
, % of the Moon is Illuminated

Today's Extremes

Country Highs Country Lows

Community

WunderPhotos

Category 6

Welcome to Category 6. This is the collective home for Weather Underground's featured writeups by Dr. Jeff Masters (right), Bob Henson (left), Chris Burt, and other regular contributors.

Nearby

Air Quality

  Air Quality AQ Index Pollutant
Not available.

Snow Depth

Station Depth Elevation

Earthquake Activity

City Distance Mag. Time & Date
Minimum magnitude displayed is 2.5.

Coastal Water Temperatures

Place Temperature

Stations

Nearby Weather Stations

Station Location Temp. Windchill Dew Point Humidity Wind Precip. Elev Updated Type